»·PEaware :: DCM204 KSNA-KSFO

DCM204 :: KSNA-KSFO

FLIGHT INFORMATION

Flight Status: Arrived
Operator:
DotCom
More flights by this operator :: More flights under this callsign
Pilot: Bill F. (18685)
Aircraft: Cessna 525C Citation CJ4
(C25C)
More flights by this aircraft type
Origin: KSNA John Wayne-Orange Co
United States
Destination: KSFO San Francisco Intl
United States
More flights between these airports :: More routes between these airports
Route: HHERO3 IKAYE RIZIN SPLNT STOKD SERFR SERFR4
File this flight plan on PilotEdge
Remarks:
Altitude:
(Current/Filed)
32,000ft
Speed:
(Current/Filed)
276kts
Departed: 28-Sep-21 07:21 PM
Arrived: 28-Sep-21 08:26 PM
Distance/Time
Traveled:
324nm/1:05
Distance/Time
To Go:
Arrived

Flight Plot

Page will automatically refresh every two minutes.

Flight plan parsing failed; only flown route is shown


Map Options




Map Legend


Flown Route
Filed Route
Departure Airport
Arrival Airport
Navaid (VOR, NDB)
Fix

Horizontal Profiles

Position Reports

Time Latitude Longitude Heading Altitude Ground
Speed
28-Sep-21 18:31 33.677428 -117.871106 214 44ft 0kts
28-Sep-21 18:32 33.677428 -117.871106 214 44ft 0kts
28-Sep-21 18:33 33.677428 -117.871106 214 44ft 0kts
28-Sep-21 18:34 33.677428 -117.871106 214 44ft 0kts
28-Sep-21 18:35 33.677428 -117.871106 214 44ft 0kts
28-Sep-21 18:36 33.677428 -117.871106 214 44ft 0kts
28-Sep-21 18:37 33.677428 -117.871106 214 44ft 0kts
28-Sep-21 18:38 33.677428 -117.871106 214 44ft 0kts
28-Sep-21 18:39 33.677428 -117.871106 214 44ft 0kts
28-Sep-21 18:40 33.677428 -117.871106 214 44ft 0kts
28-Sep-21 18:41 33.677428 -117.871106 214 44ft 0kts
28-Sep-21 18:42 33.677428 -117.871106 214 44ft 0kts
28-Sep-21 18:43 33.677428 -117.871106 214 44ft 0kts
28-Sep-21 18:44 33.677428 -117.871106 214 44ft 0kts
28-Sep-21 18:45 33.677428 -117.871106 214 44ft 0kts
28-Sep-21 18:46 33.677428 -117.871106 214 44ft 0kts
28-Sep-21 18:47 33.677428 -117.871106 214 44ft 0kts
28-Sep-21 18:48 33.676576 -117.871222 116 44ft 4kts
28-Sep-21 18:49 33.676559 -117.871181 116 44ft 0kts
28-Sep-21 18:50 33.676551 -117.871160 116 44ft 1kts
28-Sep-21 18:51 33.676535 -117.871123 116 44ft 0kts
28-Sep-21 18:52 33.676535 -117.871123 116 44ft 0kts
28-Sep-21 18:53 33.676535 -117.871123 116 44ft 0kts
28-Sep-21 18:54 33.676535 -117.871123 116 44ft 0kts
28-Sep-21 18:55 33.676535 -117.871123 116 44ft 0kts
28-Sep-21 18:56 33.676535 -117.871123 116 44ft 0kts
28-Sep-21 18:57 33.676535 -117.871123 116 44ft 0kts
28-Sep-21 18:58 33.676535 -117.871123 116 44ft 0kts
28-Sep-21 18:59 33.676535 -117.871123 116 44ft 0kts
28-Sep-21 19:00 33.676535 -117.871123 116 44ft 0kts
28-Sep-21 19:01 33.676535 -117.871123 116 44ft 0kts
28-Sep-21 19:05 33.676769 -117.870764 178 44ft 0kts
28-Sep-21 19:07 33.676769 -117.870764 178 44ft 0kts
28-Sep-21 19:08 33.676769 -117.870764 178 44ft 0kts
28-Sep-21 19:09 33.676769 -117.870764 178 44ft 0kts
28-Sep-21 19:10 33.676769 -117.870764 178 44ft 0kts
28-Sep-21 19:11 33.676769 -117.870764 178 44ft 0kts
28-Sep-21 19:12 33.676769 -117.870764 178 44ft 0kts
28-Sep-21 19:13 33.676614 -117.870754 153 44ft 0kts
28-Sep-21 19:14 33.676614 -117.870754 153 44ft 0kts
28-Sep-21 19:15 33.676444 -117.870553 116 44ft 6kts
28-Sep-21 19:16 33.680009 -117.867784 25 44ft 20kts
28-Sep-21 19:17 33.681893 -117.866172 86 43ft 0kts
28-Sep-21 19:18 33.681893 -117.866172 86 43ft 0kts
28-Sep-21 19:19 33.681893 -117.866172 86 43ft 0kts
28-Sep-21 19:20 33.681893 -117.866172 86 43ft 0kts
28-Sep-21 19:21 33.675382 -117.869036 208 76ft 137kts
28-Sep-21 19:22 33.629008 -117.892826 201 2927ft 218kts
28-Sep-21 19:23 33.573649 -117.908695 155 5007ft 209kts
28-Sep-21 19:24 33.526582 -117.949030 228 9285ft 247kts
28-Sep-21 19:25 33.475484 -118.010396 237 14803ft 273kts
28-Sep-21 19:26 33.439464 -118.086605 240 19160ft 292kts
28-Sep-21 19:26 33.412216 -118.151478 266 22061ft 307kts
28-Sep-21 19:28 33.435690 -118.278680 283 23013ft 377kts
28-Sep-21 19:29 33.478580 -118.389976 299 24691ft 364kts
28-Sep-21 19:30 33.521753 -118.488808 300 28390ft 311kts
28-Sep-21 19:30 33.565028 -118.555749 309 30527ft 303kts
28-Sep-21 19:31 33.615964 -118.635421 307 32004ft 321kts
28-Sep-21 19:33 33.697343 -118.734353 332 32028ft 406kts
28-Sep-21 19:34 33.801803 -118.797173 331 32017ft 432kts
28-Sep-21 19:34 33.891367 -118.852965 332 32014ft 442kts
28-Sep-21 19:35 34.001589 -118.921268 332 32004ft 448kts
28-Sep-21 19:36 34.112728 -118.990922 332 32002ft 450kts
28-Sep-21 19:38 34.195165 -119.109197 299 32013ft 450kts
28-Sep-21 19:38 34.249940 -119.216867 302 32003ft 451kts
28-Sep-21 19:39 34.315648 -119.345956 301 32004ft 451kts
28-Sep-21 19:40 34.381293 -119.473908 301 32007ft 451kts
28-Sep-21 19:41 34.458511 -119.593036 316 32007ft 452kts
28-Sep-21 19:42 34.546761 -119.699895 313 32004ft 452kts
28-Sep-21 19:43 34.635308 -119.808686 314 32006ft 452kts
28-Sep-21 19:44 34.723326 -119.917389 314 32007ft 452kts
28-Sep-21 19:45 34.803609 -120.017199 314 32003ft 452kts
28-Sep-21 19:46 34.891247 -120.126443 314 32005ft 452kts
28-Sep-21 19:47 34.979087 -120.236301 314 32007ft 452kts
28-Sep-21 19:48 35.065729 -120.345035 313 32003ft 452kts
28-Sep-21 19:49 35.155492 -120.447955 317 32005ft 452kts
28-Sep-21 19:50 35.245843 -120.550422 317 32004ft 452kts
28-Sep-21 19:51 35.339609 -120.655427 317 32012ft 474kts
28-Sep-21 19:52 35.433619 -120.761491 317 32008ft 457kts
28-Sep-21 19:53 35.528137 -120.860793 324 32013ft 449kts
28-Sep-21 19:54 35.621302 -120.946497 322 32011ft 445kts
28-Sep-21 19:55 35.720688 -121.038584 322 32010ft 447kts
28-Sep-21 19:56 35.819888 -121.131004 322 32009ft 447kts
28-Sep-21 19:57 35.913420 -121.218689 322 32009ft 447kts
28-Sep-21 19:58 36.010442 -121.309888 322 32007ft 447kts
28-Sep-21 19:59 36.111136 -121.399253 329 32008ft 447kts
28-Sep-21 20:00 36.216365 -121.480562 327 30495ft 438kts
28-Sep-21 20:01 36.311840 -121.554925 327 28296ft 419kts
28-Sep-21 20:02 36.408601 -121.630647 327 26112ft 402kts
28-Sep-21 20:03 36.501457 -121.703920 327 24012ft 398kts
28-Sep-21 20:04 36.572756 -121.760252 327 22396ft 399kts
28-Sep-21 20:05 36.590436 -121.774211 327 21995ft 399kts
28-Sep-21 20:06 36.630704 -121.806050 327 21082ft 398kts
28-Sep-21 20:07 36.718868 -121.876010 327 19087ft 393kts
28-Sep-21 20:08 36.814129 -121.914530 348 17132ft 384kts
28-Sep-21 20:09 36.916947 -121.943371 347 15073ft 374kts
28-Sep-21 20:10 37.012297 -121.976506 340 13192ft 365kts
28-Sep-21 20:11 37.103997 -122.012121 343 11443ft 301kts
28-Sep-21 20:12 37.173545 -122.039215 342 10147ft 247kts
28-Sep-21 20:13 37.235799 -122.063747 343 8943ft 227kts
28-Sep-21 20:14 37.289632 -122.084989 343 7828ft 221kts
28-Sep-21 20:15 37.350180 -122.108819 343 6573ft 232kts
28-Sep-21 20:16 37.412741 -122.131808 345 5055ft 233kts
28-Sep-21 20:17 37.464584 -122.149103 345 3901ft 169kts
28-Sep-21 20:18 37.504643 -122.162290 345 3351ft 143kts
28-Sep-21 20:19 37.538660 -122.177958 291 2858ft 135kts
28-Sep-21 20:20 37.556403 -122.219541 299 2256ft 133kts
28-Sep-21 20:21 37.572463 -122.258991 298 1769ft 128kts
28-Sep-21 20:22 37.589508 -122.299696 296 1068ft 134kts
28-Sep-21 20:23 37.605545 -122.337638 296 394ft 94kts
28-Sep-21 20:24 37.616316 -122.363611 295 13ft 64kts
28-Sep-21 20:25 37.621312 -122.375526 304 11ft 20kts
28-Sep-21 20:26 37.624019 -122.378443 298 13ft 17kts
28-Sep-21 20:27 37.626661 -122.384537 331 9ft 12kts
28-Sep-21 20:28 37.627842 -122.384471 66 8ft 0kts
28-Sep-21 20:29 37.627842 -122.384471 66 8ft 0kts
28-Sep-21 20:30 37.627842 -122.384471 66 8ft 0kts
28-Sep-21 20:31 37.627842 -122.384471 66 8ft 0kts
28-Sep-21 20:32 37.627842 -122.384471 66 8ft 0kts

Navigation Log

Ident Type
Flight plan parsing failed, navigation log unavailable